Flag for USA

Past Weather in 43°03'47.0"N, 86°13'42.2"W, USA — Yesterday and Last 2 Weeks

Currently: 40 °F. Passing clouds. (Weather station: Muskegon County Airport, USA). See more current weather

Past Weather in 43°03'47.0"N, 86°13'42.2"W — Graph

°F

43°03'47.0"N, 86°13'42.2"W Temperature Yesterday

Maximum temperature yesterday: 42 °F (at 10:55 pm)
Minimum temperature yesterday: 34 °F (at 7:11 am)
Average temperature yesterday: 37 °F

High & Low Weather Summary for the Past Weeks

 TemperatureHumidityPressure
High53 °F (Nov 24, 4:55 pm)96% (Nov 30, 6:55 am)30.49 "Hg (Nov 30, 6:55 am)
Low20 °F (Nov 23, 7:55 am)38% (Nov 22, 3:55 pm)29.57 "Hg (Dec 2, 1:55 am)
Average38 °F69%30.03 "Hg
* Reported Nov 19 6:55 am — Dec 4 6:55 am, 43°03'47.0"N, 86°13'42.2"W. Weather by CustomWeather, © 2021

Note: Actual official high and low records may vary slightly from our data, if they occured in-between our weather recording intervals... More about our weather records

43°03'47.0"N, 86°13'42.2"W Weather History for the Previous 24 Hours

Scroll right to see more
 ConditionsComfort  
Time TempWeatherWind HumidityBarometerVisibility
6:55 am
Sat, Dec 4
40 °FPassing clouds.15 mph49%30.15 "Hg10 mi
5:55 am40 °FPassing clouds.15 mph53%30.15 "Hg10 mi
4:55 am40 °FPassing clouds.12 mph65%30.14 "Hg10 mi
3:55 am40 °FPassing clouds.10 mph70%30.13 "Hg10 mi
2:55 am40 °FPassing clouds.7 mph73%30.12 "Hg10 mi
2:19 am40 °FPassing clouds.8 mph70%30.11 "Hg10 mi
1:55 am40 °FPassing clouds.9 mph73%30.12 "Hg10 mi
12:55 am41 °FOvercast.10 mph70%30.12 "Hg10 mi
11:55 pm
Fri, Dec 3
41 °FOvercast.7 mph70%30.11 "Hg10 mi
10:55 pm42 °FOvercast.10 mph73%30.10 "Hg10 mi
9:55 pm39 °FOvercast.No wind89%30.09 "Hg10 mi
8:55 pm39 °FOvercast.No wind86%30.10 "Hg10 mi
7:55 pm39 °FOvercast.No wind89%30.09 "Hg10 mi
6:55 pm38 °FOvercast.5 mph93%30.07 "Hg10 mi
6:39 pm38 °FMostly cloudy.3 mph93%30.05 "Hg10 mi
5:55 pm38 °FMostly cloudy.6 mph90%30.06 "Hg10 mi
5:37 pm39 °FLow clouds.6 mph86%30.05 "Hg10 mi
4:55 pm39 °FOvercast.3 mph86%30.07 "Hg10 mi
3:55 pm39 °FOvercast.6 mph86%30.07 "Hg10 mi
2:55 pm39 °FMore clouds than sun.6 mph86%30.05 "Hg10 mi
2:20 pm39 °FOvercast.6 mph86%30.04 "Hg10 mi
1:55 pm39 °FFog.5 mph89%30.05 "Hg3 mi
1:39 pm38 °FFog.6 mph90%30.03 "Hg3 mi
12:55 pm38 °FFog.5 mph90%30.07 "Hg3 mi
11:55 am37 °FFog.7 mph89%30.09 "Hg3 mi
10:55 am36 °FLow clouds.6 mph92%30.11 "Hg9 mi
10:37 am36 °FFog.6 mph89%30.10 "Hg5 mi
9:55 am35 °FLight snow. Fog.6 mph88%30.12 "Hg2 mi
8:55 am34 °FLight snow. Fog.5 mph92%30.12 "Hg2 mi
8:29 am34 °FLight snow. Fog.No wind92%30.09 "Hg2 mi
8:18 am34 °FLight snow. Fog.3 mph92%30.08 "Hg2 mi
Weather by CustomWeather, © 2021

See weather overview